createdAt,value
2023-08-17T00:00:11.436Z,8.10
2023-08-17T00:02:40.118Z,8.27
2023-08-17T00:05:08.918Z,5.60
2023-08-17T00:07:37.891Z,9.17
2023-08-17T00:10:06.759Z,10.70
2023-08-17T00:12:36.298Z,5.50
2023-08-17T00:15:05.138Z,8.93
2023-08-17T00:17:33.713Z,6.37
2023-08-17T00:20:01.970Z,10.90
2023-08-17T00:22:30.179Z,8.47
2023-08-17T00:24:58.366Z,7.27
2023-08-17T00:27:26.887Z,5.90
2023-08-17T00:29:56.611Z,10.43
2023-08-17T00:32:25.214Z,7.70
2023-08-17T00:34:53.418Z,14.67
2023-08-17T00:37:21.631Z,10.57
2023-08-17T00:39:49.832Z,8.13
2023-08-17T00:42:18.005Z,8.30
2023-08-17T00:44:46.191Z,8.23
2023-08-17T00:47:16.593Z,6.60
2023-08-17T00:49:44.864Z,5.20
2023-08-17T00:52:13.218Z,10.30
2023-08-17T00:54:41.413Z,7.80
2023-08-17T00:57:11.095Z,10.30
2023-08-17T00:59:40.445Z,11.33
2023-08-17T01:02:09.915Z,10.43
2023-08-17T01:04:39.554Z,9.33
2023-08-17T01:07:07.754Z,7.43
2023-08-17T01:09:36.248Z,8.07
2023-08-17T01:12:17.051Z,6.67
2023-08-17T01:14:53.087Z,9.27
2023-08-17T01:17:24.799Z,7.33
2023-08-17T01:19:55.438Z,7.57
2023-08-17T01:22:24.005Z,7.53
2023-08-17T01:24:58.401Z,6.90
2023-08-17T01:27:27.030Z,8.03
2023-08-17T01:29:55.853Z,7.10
2023-08-17T01:32:31.628Z,6.73
2023-08-17T01:35:09.364Z,8.33
2023-08-17T01:37:40.281Z,6.30
2023-08-17T01:40:11.805Z,7.50
2023-08-17T01:42:41.309Z,6.00
2023-08-17T01:45:10.582Z,6.00
2023-08-17T01:47:38.802Z,6.47
2023-08-17T01:50:08.133Z,6.60
2023-08-17T01:52:36.693Z,5.57
2023-08-17T01:55:05.559Z,5.77
2023-08-17T01:57:36.033Z,6.60
2023-08-17T02:00:06.036Z,5.77
2023-08-17T02:02:34.392Z,6.80
2023-08-17T02:05:02.613Z,7.17
2023-08-17T02:07:31.108Z,6.93
2023-08-17T02:09:59.524Z,6.27
2023-08-17T02:12:27.805Z,5.70
2023-08-17T02:14:57.390Z,8.40
2023-08-17T02:17:25.965Z,7.00
2023-08-17T02:19:54.268Z,6.30
2023-08-17T02:22:22.470Z,13.20
2023-08-17T02:24:50.702Z,9.63
2023-08-17T02:27:18.961Z,6.10
2023-08-17T02:29:47.145Z,8.93
2023-08-17T02:32:16.747Z,5.53
2023-08-17T02:34:44.936Z,4.53
2023-08-17T02:37:13.116Z,6.57
2023-08-17T02:39:42.872Z,7.70
2023-08-17T02:42:11.083Z,7.30
2023-08-17T02:44:39.296Z,7.20
2023-08-17T02:47:07.978Z,7.17
2023-08-17T02:49:37.526Z,5.77
2023-08-17T02:52:06.224Z,11.73
2023-08-17T02:54:34.456Z,5.80
2023-08-17T02:57:02.872Z,5.17
2023-08-17T02:59:31.076Z,5.40
2023-08-17T03:01:59.580Z,4.53
2023-08-17T03:04:27.821Z,4.50
2023-08-17T03:06:57.370Z,7.83
2023-08-17T03:09:25.539Z,6.90
2023-08-17T03:11:53.906Z,6.07
2023-08-17T03:14:22.199Z,5.43
2023-08-17T03:16:50.416Z,6.43
2023-08-17T03:19:18.772Z,6.23
2023-08-17T03:21:46.963Z,4.67
2023-08-17T03:24:16.572Z,6.40
2023-08-17T03:26:44.785Z,5.97
2023-08-17T03:29:13.023Z,7.47
2023-08-17T03:31:41.374Z,10.53
2023-08-17T03:34:09.568Z,4.30
2023-08-17T03:36:37.821Z,11.03
2023-08-17T03:39:06.325Z,6.03
2023-08-17T03:41:37.695Z,6.80
2023-08-17T03:44:08.081Z,7.70
2023-08-17T03:46:36.309Z,5.47
2023-08-17T03:49:05.061Z,6.80
2023-08-17T03:51:33.308Z,5.30
2023-08-17T03:54:01.512Z,5.40
2023-08-17T03:56:29.793Z,4.80
2023-08-17T03:58:59.544Z,8.30
2023-08-17T04:01:28.745Z,12.57
2023-08-17T04:03:57.726Z,9.60
2023-08-17T04:06:25.900Z,5.87
2023-08-17T04:08:54.093Z,6.17
2023-08-17T04:11:22.274Z,9.70
2023-08-17T04:13:50.577Z,6.30
2023-08-17T04:16:20.178Z,8.47
2023-08-17T04:18:48.397Z,10.70
2023-08-17T04:21:16.600Z,6.50
2023-08-17T04:23:44.781Z,7.13
2023-08-17T04:26:12.957Z,7.33
2023-08-17T04:28:45.103Z,9.07
2023-08-17T04:31:13.904Z,10.17
2023-08-17T04:33:43.900Z,11.67
2023-08-17T04:36:12.163Z,9.80
2023-08-17T04:38:40.367Z,8.10
2023-08-17T04:41:08.720Z,8.67
2023-08-17T04:43:36.954Z,9.00
2023-08-17T04:46:05.408Z,6.20
2023-08-17T04:48:33.649Z,8.17
2023-08-17T04:51:03.761Z,7.50
2023-08-17T04:53:31.991Z,6.43
2023-08-17T04:56:00.843Z,6.43
2023-08-17T04:58:29.020Z,8.83
2023-08-17T05:00:57.312Z,9.57
2023-08-17T05:06:00.282Z,11.37
2023-08-17T05:08:29.988Z,8.10
2023-08-17T05:10:58.250Z,9.80
2023-08-17T05:13:26.507Z,11.43
2023-08-17T05:15:54.737Z,8.60
2023-08-17T05:18:23.127Z,5.37
2023-08-17T05:20:51.376Z,7.20
2023-08-17T05:23:19.595Z,7.03
2023-08-17T05:25:50.194Z,5.83
2023-08-17T05:28:18.443Z,8.43
2023-08-17T05:30:46.682Z,7.83
2023-08-17T05:33:14.946Z,8.27
2023-08-17T05:35:43.370Z,9.23
2023-08-17T05:38:11.913Z,7.77
2023-08-17T05:40:40.144Z,4.60
2023-08-17T05:43:09.794Z,7.03
2023-08-17T05:45:38.860Z,4.93
2023-08-17T05:48:07.899Z,8.60
2023-08-17T05:50:36.225Z,6.00
2023-08-17T05:53:04.572Z,10.43
2023-08-17T05:55:33.035Z,6.07
2023-08-17T05:58:01.380Z,33.83
2023-08-17T06:00:31.327Z,6.97
2023-08-17T06:03:02.770Z,8.77
2023-08-17T06:05:31.342Z,7.20
2023-08-17T06:08:01.235Z,6.57
2023-08-17T06:10:29.506Z,8.87
2023-08-17T06:12:58.513Z,6.07
2023-08-17T06:15:27.271Z,7.13
2023-08-17T06:17:56.887Z,7.77
2023-08-17T06:20:25.121Z,5.83
2023-08-17T06:22:53.356Z,7.33
2023-08-17T06:25:22.994Z,7.50
2023-08-17T06:27:51.770Z,10.80
2023-08-17T06:30:20.272Z,8.00
2023-08-17T06:32:48.646Z,8.27
2023-08-17T06:35:18.275Z,10.93
2023-08-17T06:37:46.549Z,7.33
2023-08-17T06:40:14.762Z,9.50
2023-08-17T06:42:43.370Z,9.50
2023-08-17T06:45:11.942Z,9.23
2023-08-17T06:47:40.217Z,16.30
2023-08-17T06:50:10.813Z,12.80
2023-08-17T06:52:42.811Z,10.40
2023-08-17T06:55:11.726Z,11.80
2023-08-17T06:57:40.012Z,12.20
2023-08-17T07:00:11.027Z,10.90
2023-08-17T07:02:51.238Z,13.10
2023-08-17T07:05:21.809Z,14.23
2023-08-17T07:07:51.350Z,11.90
2023-08-17T07:10:19.919Z,11.23
2023-08-17T07:12:48.217Z,13.77
2023-08-17T07:15:16.571Z,14.07
2023-08-17T07:17:44.906Z,13.60
2023-08-17T07:20:17.070Z,15.03
2023-08-17T07:22:51.872Z,15.00
2023-08-17T07:25:20.323Z,14.70
2023-08-17T07:27:48.700Z,14.00
2023-08-17T07:30:17.005Z,16.47
2023-08-17T07:32:45.299Z,10.40
2023-08-17T07:35:13.789Z,17.50
2023-08-17T07:37:43.242Z,13.10
2023-08-17T07:40:13.948Z,24.33
2023-08-17T07:42:42.307Z,14.90
2023-08-17T07:45:13.677Z,23.13
2023-08-17T07:47:42.052Z,14.30
2023-08-17T07:50:10.858Z,11.27
2023-08-17T07:52:39.533Z,13.87
2023-08-17T07:55:08.042Z,12.10
2023-08-17T07:57:37.705Z,15.03
2023-08-17T08:00:10.135Z,12.40
2023-08-17T08:02:38.555Z,17.00
2023-08-17T08:05:08.226Z,16.00
2023-08-17T08:07:36.490Z,14.80
2023-08-17T08:10:05.274Z,15.20
2023-08-17T08:12:33.481Z,20.63
2023-08-17T08:15:03.417Z,16.63
2023-08-17T08:17:32.758Z,19.83
2023-08-17T08:20:01.111Z,15.17
2023-08-17T08:22:29.509Z,24.13
2023-08-17T08:24:58.004Z,15.57
2023-08-17T08:27:26.862Z,18.87
2023-08-17T08:29:55.183Z,20.00
2023-08-17T08:32:25.086Z,16.67
2023-08-17T08:34:53.442Z,15.97
2023-08-17T08:37:21.825Z,17.17
2023-08-17T08:39:54.487Z,18.83
2023-08-17T08:42:24.098Z,19.93
2023-08-17T08:44:52.660Z,18.10
2023-08-17T08:47:21.093Z,29.10
2023-08-17T08:50:00.594Z,19.67
2023-08-17T08:52:34.686Z,24.23
2023-08-17T08:55:10.395Z,16.70
2023-08-17T08:57:39.910Z,19.17
2023-08-17T09:00:10.545Z,16.57
2023-08-17T09:02:40.086Z,24.20
2023-08-17T09:05:12.262Z,19.87
2023-08-17T09:07:41.258Z,21.30
2023-08-17T09:10:12.372Z,20.60
2023-08-17T09:12:42.104Z,20.60
2023-08-17T09:15:11.243Z,16.30
2023-08-17T09:17:39.925Z,17.00
2023-08-17T09:20:11.483Z,17.27
2023-08-17T09:22:42.153Z,14.30
2023-08-17T09:25:11.276Z,22.70
2023-08-17T09:27:40.345Z,20.70
2023-08-17T09:30:10.902Z,15.83
2023-08-17T09:32:39.588Z,19.03
2023-08-17T09:35:10.248Z,20.23
2023-08-17T09:37:38.899Z,18.57
2023-08-17T09:40:09.848Z,19.33
2023-08-17T09:42:38.553Z,17.40
2023-08-17T09:45:08.600Z,23.80
2023-08-17T09:47:37.770Z,20.77
2023-08-17T09:50:09.961Z,22.00
2023-08-17T09:52:41.194Z,17.07
2023-08-17T09:55:11.870Z,21.70
2023-08-17T09:57:42.253Z,22.40
2023-08-17T10:00:12.116Z,22.30
2023-08-17T10:02:40.682Z,24.93
2023-08-17T10:05:13.193Z,19.90
2023-08-17T10:07:45.492Z,19.77
2023-08-17T10:10:15.580Z,21.87
2023-08-17T10:12:49.405Z,19.00
2023-08-17T10:15:20.273Z,21.63
2023-08-17T10:17:57.710Z,19.20
2023-08-17T10:20:31.536Z,22.80
2023-08-17T10:23:06.882Z,23.60
2023-08-17T10:25:37.085Z,20.60
2023-08-17T10:28:06.663Z,20.60
2023-08-17T10:30:35.290Z,19.87
2023-08-17T10:33:05.117Z,20.43
2023-08-17T10:35:35.791Z,17.70
2023-08-17T10:38:10.510Z,26.37
2023-08-17T10:40:41.390Z,21.73
2023-08-17T10:43:09.827Z,19.40
2023-08-17T10:45:40.118Z,21.57
2023-08-17T10:48:27.883Z,18.47
2023-08-17T10:51:07.944Z,18.43
2023-08-17T10:53:39.909Z,20.33
2023-08-17T10:56:14.643Z,19.83
2023-08-17T10:58:45.239Z,19.47
2023-08-17T11:01:15.411Z,18.20
2023-08-17T11:03:44.880Z,18.40
2023-08-17T11:06:19.885Z,20.13
2023-08-17T11:08:56.739Z,19.17
2023-08-17T11:11:25.809Z,23.47
2023-08-17T11:13:57.333Z,18.27
2023-08-17T11:16:26.669Z,18.37
2023-08-17T11:18:57.897Z,18.10
2023-08-17T11:21:27.815Z,17.87
2023-08-17T11:23:59.540Z,16.70
2023-08-17T11:26:28.961Z,17.73
2023-08-17T11:28:57.320Z,15.30
2023-08-17T11:31:25.799Z,17.60
2023-08-17T11:33:56.381Z,16.90
2023-08-17T11:36:25.500Z,17.90
2023-08-17T11:38:56.358Z,18.03
2023-08-17T11:41:24.731Z,15.63
2023-08-17T11:43:54.280Z,18.83
2023-08-17T11:46:28.922Z,13.40
2023-08-17T11:49:01.174Z,19.50
2023-08-17T11:51:32.636Z,18.10
2023-08-17T11:54:04.875Z,16.27
2023-08-17T11:56:33.093Z,13.67
2023-08-17T11:59:09.961Z,14.77
2023-08-17T12:01:38.342Z,16.23
2023-08-17T12:04:07.217Z,19.70
2023-08-17T12:06:35.724Z,13.93
2023-08-17T12:09:07.006Z,16.07
2023-08-17T12:11:35.253Z,14.30
2023-08-17T12:14:10.874Z,15.53
2023-08-17T12:16:47.536Z,15.70
2023-08-17T12:19:15.744Z,14.90
2023-08-17T12:21:44.682Z,14.67
2023-08-17T12:24:15.632Z,18.97
2023-08-17T12:26:44.600Z,14.57
2023-08-17T12:29:12.886Z,17.00
2023-08-17T12:31:41.248Z,14.03
2023-08-17T12:34:09.558Z,17.10
2023-08-17T12:36:38.789Z,11.83
2023-08-17T12:39:07.854Z,13.67
2023-08-17T12:41:37.522Z,15.67
2023-08-17T12:44:06.187Z,12.27
2023-08-17T12:46:35.708Z,13.67
2023-08-17T12:49:04.028Z,19.03
2023-08-17T12:51:32.369Z,14.23
2023-08-17T12:54:01.022Z,14.53
2023-08-17T12:56:29.330Z,14.00
2023-08-17T12:59:03.047Z,14.93
2023-08-17T13:01:31.726Z,12.60
2023-08-17T13:03:59.895Z,17.70
2023-08-17T13:06:39.801Z,13.67
2023-08-17T13:09:17.174Z,17.00
2023-08-17T13:11:45.727Z,15.33
2023-08-17T13:14:16.148Z,13.57
2023-08-17T13:16:44.671Z,15.77
2023-08-17T13:19:13.220Z,15.60
2023-08-17T13:21:41.812Z,22.90
2023-08-17T13:24:10.924Z,16.90
2023-08-17T13:26:39.341Z,16.13
2023-08-17T13:29:07.623Z,15.57
2023-08-17T13:31:37.232Z,16.47
2023-08-17T13:34:05.827Z,15.73
2023-08-17T13:36:34.065Z,17.33
2023-08-17T13:39:02.344Z,14.70
2023-08-17T13:41:30.855Z,17.37
2023-08-17T13:44:00.939Z,14.80
2023-08-17T13:46:29.764Z,13.90
2023-08-17T13:49:00.107Z,15.63
2023-08-17T13:51:28.384Z,15.73
2023-08-17T13:53:56.726Z,14.40
2023-08-17T13:56:26.294Z,13.30
2023-08-17T13:58:55.539Z,12.53
2023-08-17T14:01:23.853Z,14.80
2023-08-17T14:03:52.675Z,18.83
2023-08-17T14:06:22.384Z,13.23
2023-08-17T14:08:50.600Z,12.30
2023-08-17T14:11:18.811Z,11.77
2023-08-17T14:13:46.978Z,12.90
2023-08-17T14:16:15.505Z,11.63
2023-08-17T14:18:43.702Z,10.90
2023-08-17T14:21:11.937Z,12.00
2023-08-17T14:23:41.931Z,11.17
2023-08-17T14:26:10.168Z,14.47
2023-08-17T14:28:44.473Z,11.00
2023-08-17T14:31:17.043Z,11.57
2023-08-17T14:33:48.505Z,10.73
2023-08-17T14:36:20.558Z,10.23
2023-08-17T14:38:50.601Z,8.67
2023-08-17T14:41:18.819Z,8.43
2023-08-17T14:43:47.194Z,8.37
2023-08-17T14:46:16.051Z,10.17
2023-08-17T14:48:44.336Z,7.87
2023-08-17T14:51:12.523Z,6.63
2023-08-17T14:53:40.781Z,8.83
2023-08-17T14:56:10.688Z,9.50
2023-08-17T14:58:38.920Z,8.47
2023-08-17T15:01:07.599Z,9.23
2023-08-17T15:03:36.182Z,11.73
2023-08-17T15:06:04.679Z,7.40
2023-08-17T15:08:33.225Z,7.13
2023-08-17T15:11:03.257Z,6.90
2023-08-17T15:13:33.881Z,7.70
2023-08-17T15:16:02.549Z,6.77
2023-08-17T15:18:31.298Z,9.00
2023-08-17T15:20:59.637Z,6.70
2023-08-17T15:23:27.897Z,5.90
2023-08-17T15:25:56.317Z,8.23
2023-08-17T15:28:24.602Z,6.73
2023-08-17T15:31:05.358Z,5.10
2023-08-17T15:33:33.776Z,7.53
2023-08-17T15:36:02.410Z,6.43
2023-08-17T15:38:30.672Z,6.27
2023-08-17T15:40:58.873Z,5.20
2023-08-17T15:43:27.159Z,5.60
2023-08-17T15:45:56.893Z,5.80
2023-08-17T15:48:25.671Z,7.50
2023-08-17T15:50:54.721Z,5.30
2023-08-17T15:53:22.960Z,5.27
2023-08-17T15:55:51.261Z,6.43
2023-08-17T15:58:19.562Z,5.00
2023-08-17T16:00:47.793Z,5.00
2023-08-17T16:03:17.732Z,5.20
2023-08-17T16:05:46.121Z,6.40
2023-08-17T16:08:14.300Z,6.67
2023-08-17T16:10:42.499Z,5.33
2023-08-17T16:13:10.682Z,6.37
2023-08-17T16:15:39.205Z,5.37
2023-08-17T16:18:07.847Z,6.70
2023-08-17T16:20:37.539Z,5.87
2023-08-17T16:23:06.024Z,7.77
2023-08-17T16:25:35.543Z,5.77
2023-08-17T16:28:04.042Z,5.60
2023-08-17T16:30:32.417Z,4.77
2023-08-17T16:33:00.683Z,5.23
2023-08-17T16:35:29.379Z,8.00
2023-08-17T16:37:59.036Z,4.90
2023-08-17T16:40:37.514Z,5.97
2023-08-17T16:43:07.028Z,6.63
2023-08-17T16:45:35.535Z,4.30
2023-08-17T16:48:04.564Z,6.50
2023-08-17T16:50:33.763Z,5.47
2023-08-17T16:53:03.952Z,5.70
2023-08-17T16:55:32.309Z,7.90
2023-08-17T16:58:00.552Z,4.87
2023-08-17T17:00:28.826Z,6.43
2023-08-17T17:02:57.132Z,7.27
2023-08-17T17:05:25.397Z,7.90
2023-08-17T17:07:54.034Z,5.37
2023-08-17T17:10:24.542Z,7.73
2023-08-17T17:12:52.772Z,8.73
2023-08-17T17:15:21.264Z,6.10
2023-08-17T17:17:49.580Z,7.50
2023-08-17T17:20:18.006Z,5.00
2023-08-17T17:22:46.228Z,6.33
2023-08-17T17:25:14.613Z,7.70
2023-08-17T17:27:44.354Z,5.20
2023-08-17T17:30:13.681Z,5.00
2023-08-17T17:32:42.529Z,5.20
2023-08-17T17:35:11.920Z,6.43
2023-08-17T17:37:40.371Z,6.10
2023-08-17T17:40:10.220Z,6.00
2023-08-17T17:42:38.567Z,5.10
2023-08-17T17:45:09.444Z,9.33
2023-08-17T17:47:37.669Z,7.30
2023-08-17T17:50:07.563Z,5.07
2023-08-17T17:52:35.786Z,6.00
2023-08-17T17:55:04.521Z,6.07
2023-08-17T17:57:34.586Z,6.70
2023-08-17T18:00:03.321Z,5.47
2023-08-17T18:02:34.733Z,6.27
2023-08-17T18:05:03.377Z,6.97
2023-08-17T18:07:32.045Z,6.97
2023-08-17T18:10:04.049Z,6.53
2023-08-17T18:12:33.413Z,7.23
2023-08-17T18:15:02.233Z,6.50
2023-08-17T18:17:30.869Z,5.57
2023-08-17T18:20:01.246Z,5.40
2023-08-17T18:22:29.612Z,6.50
2023-08-17T18:24:57.918Z,5.80
2023-08-17T18:27:26.375Z,7.23
2023-08-17T18:29:54.956Z,9.60
2023-08-17T18:32:23.330Z,7.87
2023-08-17T18:34:51.647Z,6.53
2023-08-17T18:37:21.673Z,6.90
2023-08-17T18:39:50.106Z,7.77
2023-08-17T18:42:18.651Z,7.00
2023-08-17T18:44:46.908Z,8.53
2023-08-17T18:47:15.213Z,12.13
2023-08-17T18:49:43.458Z,6.87
2023-08-17T18:52:11.836Z,6.30
2023-08-17T18:54:41.542Z,8.00
2023-08-17T18:57:09.808Z,5.30
2023-08-17T18:59:38.461Z,8.17
2023-08-17T19:02:07.400Z,5.80
2023-08-17T19:04:36.110Z,5.70
2023-08-17T19:07:04.456Z,5.50
2023-08-17T19:09:33.009Z,6.70
2023-08-17T19:12:02.622Z,6.20
2023-08-17T19:14:30.832Z,6.00
2023-08-17T19:17:00.022Z,6.63
2023-08-17T19:19:28.318Z,7.70
2023-08-17T19:21:56.520Z,7.30
2023-08-17T19:24:24.701Z,9.80
2023-08-17T19:26:52.979Z,8.27
2023-08-17T19:29:22.732Z,7.63
2023-08-17T19:31:52.274Z,6.57
2023-08-17T19:34:20.737Z,7.07
2023-08-17T19:36:49.509Z,8.50
2023-08-17T19:39:17.836Z,8.70
2023-08-17T19:41:47.966Z,7.77
2023-08-17T19:44:16.323Z,6.93
2023-08-17T19:46:45.910Z,6.03
2023-08-17T19:49:14.201Z,7.03
2023-08-17T19:51:42.486Z,7.50
2023-08-17T19:54:10.775Z,6.83
2023-08-17T19:56:39.761Z,6.30
2023-08-17T19:59:09.232Z,9.57
2023-08-17T20:01:38.037Z,6.50
2023-08-17T20:04:11.809Z,6.43
2023-08-17T20:06:40.053Z,5.87
2023-08-17T20:09:08.504Z,10.20
2023-08-17T20:11:36.744Z,7.80
2023-08-17T20:14:05.575Z,7.63
2023-08-17T20:16:33.906Z,9.37
2023-08-17T20:19:02.216Z,7.10
2023-08-17T20:21:32.441Z,7.63
2023-08-17T20:24:00.855Z,7.33
2023-08-17T20:26:29.318Z,7.00
2023-08-17T20:28:57.528Z,9.47
2023-08-17T20:31:25.979Z,8.37
2023-08-17T20:33:54.344Z,5.93
2023-08-17T20:36:22.519Z,9.43
2023-08-17T20:38:52.995Z,7.80
2023-08-17T20:41:21.871Z,6.87
2023-08-17T20:43:50.074Z,6.73
2023-08-17T20:46:18.588Z,8.63
2023-08-17T20:48:47.218Z,6.57
2023-08-17T20:51:15.420Z,6.90
2023-08-17T20:53:43.619Z,5.83
2023-08-17T20:56:13.321Z,8.90
2023-08-17T20:58:41.588Z,8.73
2023-08-17T21:01:09.809Z,10.87
2023-08-17T21:03:38.171Z,7.10
2023-08-17T21:06:07.292Z,7.40
2023-08-17T21:08:36.499Z,8.00
2023-08-17T21:11:05.013Z,8.60
2023-08-17T21:13:35.869Z,9.23
2023-08-17T21:16:05.737Z,8.63
2023-08-17T21:18:34.290Z,9.03
2023-08-17T21:21:02.456Z,7.30
2023-08-17T21:23:31.885Z,8.60
2023-08-17T21:26:00.632Z,7.47
2023-08-17T21:28:28.920Z,10.20
2023-08-17T21:31:04.346Z,9.00
2023-08-17T21:33:33.001Z,7.00
2023-08-17T21:36:01.862Z,10.37
2023-08-17T21:38:30.383Z,8.80
2023-08-17T21:40:59.891Z,8.73
2023-08-17T21:43:28.698Z,8.37
2023-08-17T21:45:57.278Z,9.37
2023-08-17T21:48:27.563Z,10.53
2023-08-17T21:50:55.989Z,9.10
2023-08-17T21:53:24.241Z,9.63
2023-08-17T21:55:53.270Z,7.80
2023-08-17T21:58:21.941Z,7.43
2023-08-17T22:00:50.448Z,9.10
2023-08-17T22:03:18.855Z,8.73
2023-08-17T22:05:48.708Z,9.63
2023-08-17T22:08:17.335Z,7.57
2023-08-17T22:10:46.263Z,9.33
2023-08-17T22:13:14.941Z,9.87
2023-08-17T22:15:43.174Z,8.20
2023-08-17T22:18:12.204Z,9.17
2023-08-17T22:20:40.993Z,11.00
2023-08-17T22:23:10.945Z,8.10
2023-08-17T22:25:39.287Z,9.50
2023-08-17T22:28:07.829Z,8.63
2023-08-17T22:30:36.084Z,7.90
2023-08-17T22:33:04.412Z,9.67
2023-08-17T22:35:32.664Z,9.10
2023-08-17T22:38:00.820Z,8.20
2023-08-17T22:40:30.755Z,8.60
2023-08-17T22:42:59.281Z,8.93
2023-08-17T22:45:27.667Z,12.20
2023-08-17T22:47:55.887Z,10.57
2023-08-17T22:50:24.124Z,8.93
2023-08-17T22:52:54.894Z,12.03
2023-08-17T22:55:23.882Z,7.87
2023-08-17T22:57:53.463Z,8.97
2023-08-17T23:00:21.865Z,13.13
2023-08-17T23:02:50.110Z,11.40
2023-08-17T23:05:18.712Z,9.43
2023-08-17T23:07:47.146Z,11.73
2023-08-17T23:10:15.581Z,10.17
2023-08-17T23:12:43.849Z,11.33
2023-08-17T23:15:13.483Z,11.77
2023-08-17T23:17:41.733Z,10.00
2023-08-17T23:20:11.464Z,10.90
2023-08-17T23:22:39.738Z,10.47
2023-08-17T23:25:08.756Z,12.10
2023-08-17T23:27:37.004Z,15.87
2023-08-17T23:30:06.569Z,12.20
2023-08-17T23:32:36.215Z,15.17
2023-08-17T23:35:04.768Z,13.27
2023-08-17T23:37:33.052Z,11.27
2023-08-17T23:40:01.272Z,13.97
2023-08-17T23:42:29.512Z,15.07
2023-08-17T23:44:57.889Z,11.67
2023-08-17T23:47:26.145Z,13.10
2023-08-17T23:49:55.740Z,11.90
2023-08-17T23:52:23.976Z,16.00
2023-08-17T23:54:52.231Z,14.47
2023-08-17T23:57:20.465Z,13.70
2023-08-17T23:59:48.646Z,12.23
